createdAt,value
2024-02-17T00:02:43.757Z,9.16
2024-02-17T00:07:47.614Z,9.15
2024-02-17T00:12:52.503Z,9.16
2024-02-17T00:17:57.169Z,9.17
2024-02-17T00:23:01.434Z,9.16
2024-02-17T00:28:05.497Z,9.15
2024-02-17T00:33:10.564Z,9.10
2024-02-17T00:38:15.109Z,9.07
2024-02-17T00:43:19.642Z,9.02
2024-02-17T00:48:25.280Z,8.97
2024-02-17T00:53:30.658Z,8.92
2024-02-17T00:58:36.117Z,8.86
2024-02-17T01:03:40.395Z,8.80
2024-02-17T01:08:45.299Z,8.78
2024-02-17T01:13:50.475Z,8.76
2024-02-17T01:18:56.758Z,8.74
2024-02-17T01:24:03.061Z,8.72
2024-02-17T01:29:07.684Z,8.70
2024-02-17T01:34:12.077Z,8.71
2024-02-17T01:39:16.774Z,8.70
2024-02-17T01:44:21.074Z,8.73
2024-02-17T01:49:26.944Z,8.74
2024-02-17T01:54:31.869Z,8.75
2024-02-17T01:59:36.180Z,8.74
2024-02-17T02:04:40.884Z,8.70
2024-02-17T02:09:46.207Z,8.66
2024-02-17T02:15:05.977Z,8.63
2024-02-17T02:20:15.390Z,8.61
2024-02-17T02:25:27.037Z,8.60
2024-02-17T02:30:31.433Z,8.61
2024-02-17T02:35:35.957Z,8.63
2024-02-17T02:40:40.504Z,8.66
2024-02-17T02:45:45.088Z,8.68
2024-02-17T02:50:49.267Z,8.70
2024-02-17T02:55:58.687Z,8.71
2024-02-17T03:01:03.164Z,8.73
2024-02-17T03:06:08.166Z,8.76
2024-02-17T03:11:16.397Z,8.77
2024-02-17T03:16:27.818Z,8.78
2024-02-17T03:21:37.726Z,8.79
2024-02-17T03:26:42.375Z,8.79
2024-02-17T03:31:47.170Z,8.80
2024-02-17T03:36:51.457Z,8.82
2024-02-17T03:47:17.434Z,8.85
2024-02-17T03:52:21.881Z,8.87
2024-02-17T03:57:25.950Z,8.88
2024-02-17T04:02:30.544Z,8.86
2024-02-17T04:07:35.052Z,8.85
2024-02-17T04:12:42.805Z,8.80
2024-02-17T04:17:47.233Z,8.75
2024-02-17T04:22:51.193Z,8.67
2024-02-17T04:27:55.901Z,8.65
2024-02-17T04:33:00.480Z,8.62
2024-02-17T04:38:05.146Z,8.59
2024-02-17T04:43:09.857Z,8.59
2024-02-17T04:48:14.213Z,8.55
2024-02-17T04:53:18.961Z,8.53
2024-02-17T04:58:23.527Z,8.55
2024-02-17T05:03:28.909Z,8.55
2024-02-17T05:08:33.457Z,8.54
2024-02-17T05:13:38.419Z,8.55
2024-02-17T05:18:42.602Z,8.57
2024-02-17T05:23:47.521Z,8.60
2024-02-17T05:28:51.727Z,8.64
2024-02-17T05:33:56.064Z,8.67
2024-02-17T05:39:00.384Z,8.70
2024-02-17T05:44:04.819Z,8.75
2024-02-17T05:49:09.851Z,8.78
2024-02-17T05:54:16.368Z,8.81
2024-02-17T05:59:22.498Z,8.80
2024-02-17T06:04:27.035Z,8.80
2024-02-17T06:09:32.647Z,8.81
2024-02-17T06:14:37.545Z,8.83
2024-02-17T06:20:00.557Z,8.83
2024-02-17T06:25:06.692Z,8.83
2024-02-17T06:30:16.076Z,8.82
2024-02-17T06:35:19.792Z,8.84
2024-02-17T06:40:24.103Z,8.86
2024-02-17T06:45:28.831Z,8.88
2024-02-17T06:50:33.206Z,8.90
2024-02-17T06:55:37.808Z,8.90
2024-02-17T07:00:42.761Z,8.93
2024-02-17T07:05:46.849Z,8.96
2024-02-17T07:10:50.940Z,8.96
2024-02-17T07:15:56.041Z,8.97
2024-02-17T07:21:00.893Z,9.01
2024-02-17T07:26:04.862Z,9.08
2024-02-17T07:31:09.004Z,9.09
2024-02-17T07:36:13.022Z,9.10
2024-02-17T07:41:18.668Z,9.10
2024-02-17T07:46:23.349Z,9.13
2024-02-17T07:51:27.012Z,9.15
2024-02-17T07:56:31.965Z,9.20
2024-02-17T08:01:36.039Z,9.23
2024-02-17T08:06:39.984Z,9.29
2024-02-17T08:11:49.706Z,9.34
2024-02-17T08:16:54.120Z,9.40
2024-02-17T08:21:58.574Z,9.44
2024-02-17T08:27:02.766Z,9.44
2024-02-17T08:32:07.523Z,9.43
2024-02-17T08:37:14.142Z,9.48
2024-02-17T08:42:18.560Z,9.56
2024-02-17T08:47:24.035Z,9.57
2024-02-17T08:52:28.191Z,9.58
2024-02-17T08:57:32.579Z,9.59
2024-02-17T09:02:38.082Z,9.58
2024-02-17T09:07:42.615Z,9.59
2024-02-17T09:12:46.339Z,9.61
2024-02-17T09:17:50.534Z,9.68
2024-02-17T09:22:54.841Z,9.82
2024-02-17T09:27:58.807Z,10.00
2024-02-17T09:33:03.404Z,10.13
2024-02-17T09:38:08.046Z,10.13
2024-02-17T09:43:12.702Z,10.14
2024-02-17T09:48:17.532Z,10.18
2024-02-17T09:53:23.877Z,10.21
2024-02-17T09:58:28.707Z,10.24
2024-02-17T10:03:34.453Z,10.24
2024-02-17T10:08:39.297Z,10.28
2024-02-17T10:13:44.523Z,10.36
2024-02-17T10:18:49.958Z,10.46
2024-02-17T10:23:54.350Z,10.54
2024-02-17T10:28:59.821Z,10.62
2024-02-17T10:34:04.380Z,10.68
2024-02-17T10:39:08.912Z,10.77
2024-02-17T10:44:13.712Z,10.93
2024-02-17T10:49:34.202Z,11.12
2024-02-17T10:54:38.711Z,11.26
2024-02-17T10:59:45.496Z,11.32
2024-02-17T11:04:50.684Z,11.21
2024-02-17T11:10:07.537Z,11.14
2024-02-17T11:15:13.156Z,11.52
2024-02-17T11:20:18.250Z,11.67
2024-02-17T11:25:42.914Z,11.63
2024-02-17T11:30:56.180Z,11.54
2024-02-17T11:36:05.034Z,11.45
2024-02-17T11:41:08.917Z,11.32
2024-02-17T11:46:17.108Z,11.11
2024-02-17T11:51:27.262Z,11.06
2024-02-17T11:56:34.744Z,11.10
2024-02-17T12:01:39.170Z,11.18
2024-02-17T12:06:43.344Z,11.16
2024-02-17T12:11:47.451Z,11.15
2024-02-17T12:16:51.394Z,11.08
2024-02-17T12:21:59.951Z,11.02
2024-02-17T12:27:05.515Z,10.96
2024-02-17T12:32:22.676Z,10.96
2024-02-17T12:37:26.937Z,10.91
2024-02-17T12:42:31.289Z,10.84
2024-02-17T12:47:35.907Z,10.84
2024-02-17T12:52:40.910Z,10.86
2024-02-17T12:57:45.819Z,10.90
2024-02-17T13:02:50.115Z,10.86
2024-02-17T13:07:54.884Z,10.84
2024-02-17T13:12:59.491Z,10.83
2024-02-17T13:18:04.717Z,10.80
2024-02-17T13:23:10.289Z,10.76
2024-02-17T13:28:14.576Z,10.73
2024-02-17T13:33:18.925Z,10.70
2024-02-17T13:38:29.956Z,10.73
2024-02-17T13:43:35.110Z,10.74
2024-02-17T13:48:38.805Z,10.74
2024-02-17T13:53:44.060Z,10.77
2024-02-17T13:58:48.356Z,10.79
2024-02-17T14:03:52.395Z,10.78
2024-02-17T14:08:56.676Z,10.75
2024-02-17T14:14:02.882Z,10.70
2024-02-17T14:19:08.063Z,10.69
2024-02-17T14:24:12.157Z,10.63
2024-02-17T14:29:15.715Z,10.47
2024-02-17T14:34:19.460Z,10.35
2024-02-17T14:39:23.649Z,10.16
2024-02-17T14:44:28.186Z,9.90
2024-02-17T14:49:31.913Z,9.70
2024-02-17T14:54:37.178Z,9.54
2024-02-17T14:59:41.845Z,9.40
2024-02-17T15:04:46.034Z,9.23
2024-02-17T15:09:51.043Z,8.95
2024-02-17T15:14:58.102Z,8.73
2024-02-17T15:20:03.082Z,8.56
2024-02-17T15:25:08.108Z,8.42
2024-02-17T15:30:13.816Z,8.36
2024-02-17T15:35:30.764Z,8.31
2024-02-17T15:40:36.100Z,8.29
2024-02-17T15:45:41.560Z,8.25
2024-02-17T15:50:45.576Z,8.19
2024-02-17T15:55:51.079Z,8.11
2024-02-17T16:00:56.538Z,8.05
2024-02-17T16:06:07.182Z,8.02
2024-02-17T16:11:13.803Z,8.00
2024-02-17T16:16:18.938Z,7.97
2024-02-17T16:21:24.263Z,7.89
2024-02-17T16:26:33.274Z,7.76
2024-02-17T16:31:37.798Z,7.63
2024-02-17T16:36:42.459Z,7.56
2024-02-17T16:41:52.357Z,7.52
2024-02-17T16:46:56.306Z,7.47
2024-02-17T16:52:00.339Z,7.41
2024-02-17T16:57:07.679Z,7.40
2024-02-17T17:02:13.752Z,7.40
2024-02-17T17:07:18.742Z,7.42
2024-02-17T17:12:23.037Z,7.37
2024-02-17T17:17:26.861Z,7.34
2024-02-17T17:22:40.003Z,7.26
2024-02-17T17:27:50.632Z,7.18
2024-02-17T17:32:54.577Z,7.11
2024-02-17T17:37:59.337Z,7.06
2024-02-17T17:43:07.133Z,7.06
2024-02-17T17:48:12.797Z,7.03
2024-02-17T17:53:17.117Z,6.98
2024-02-17T17:58:21.961Z,6.93
2024-02-17T18:03:27.970Z,6.88
2024-02-17T18:08:31.965Z,6.86
2024-02-17T18:13:35.968Z,6.82
2024-02-17T18:18:40.142Z,6.77
2024-02-17T18:23:44.369Z,6.73
2024-02-17T18:28:48.505Z,6.72
2024-02-17T18:33:52.284Z,6.69
2024-02-17T18:38:56.697Z,6.68
2024-02-17T18:44:00.895Z,6.64
2024-02-17T18:49:05.535Z,6.61
2024-02-17T18:54:09.072Z,6.58
2024-02-17T18:59:13.077Z,6.55
2024-02-17T19:04:16.893Z,6.54
2024-02-17T19:09:22.498Z,6.51
2024-02-17T19:14:28.781Z,6.48
2024-02-17T19:19:32.407Z,6.42
2024-02-17T19:24:36.321Z,6.37
2024-02-17T19:29:41.284Z,6.35
2024-02-17T19:34:45.443Z,6.31
2024-02-17T19:39:49.693Z,6.27
2024-02-17T19:44:53.587Z,6.24
2024-02-17T19:49:58.528Z,6.22
2024-02-17T19:55:02.869Z,6.17
2024-02-17T20:00:08.218Z,6.14
2024-02-17T20:05:12.508Z,6.12
2024-02-17T20:10:17.355Z,6.11
2024-02-17T20:15:21.960Z,6.02
2024-02-17T20:20:26.294Z,5.94
2024-02-17T20:25:32.431Z,5.88
2024-02-17T20:30:36.877Z,5.82
2024-02-17T20:35:40.963Z,5.80
2024-02-17T20:40:45.619Z,5.77
2024-02-17T20:45:50.848Z,5.74
2024-02-17T20:50:56.028Z,5.71
2024-02-17T20:55:59.604Z,5.66
2024-02-17T21:01:05.121Z,5.63
2024-02-17T21:06:09.963Z,5.60
2024-02-17T21:11:17.667Z,5.59
2024-02-17T21:16:21.916Z,5.58
2024-02-17T21:21:29.052Z,5.55
2024-02-17T21:26:35.822Z,5.46
2024-02-17T21:31:42.785Z,5.37
2024-02-17T21:36:48.693Z,5.33
2024-02-17T21:41:52.830Z,5.27
2024-02-17T21:46:57.800Z,5.22
2024-02-17T21:52:02.831Z,5.19
2024-02-17T21:57:09.441Z,5.18
2024-02-17T22:02:13.441Z,5.18
2024-02-17T22:07:17.326Z,5.19
2024-02-17T22:12:21.340Z,5.18
2024-02-17T22:17:26.354Z,5.15
2024-02-17T22:22:30.912Z,5.12
2024-02-17T22:27:34.872Z,5.06
2024-02-17T22:32:38.791Z,5.04
2024-02-17T22:37:43.416Z,5.00
2024-02-17T22:42:47.657Z,4.97
2024-02-17T22:47:54.393Z,4.96
2024-02-17T22:52:58.972Z,4.96
2024-02-17T22:58:03.261Z,4.94
2024-02-17T23:03:08.417Z,4.92
2024-02-17T23:08:12.892Z,4.89
2024-02-17T23:13:20.222Z,4.81
2024-02-17T23:18:24.034Z,4.69
2024-02-17T23:23:28.625Z,4.60
2024-02-17T23:28:38.693Z,4.54
2024-02-17T23:33:42.831Z,4.48
2024-02-17T23:38:46.911Z,4.46
2024-02-17T23:43:51.415Z,4.44
2024-02-17T23:48:56.649Z,4.40
2024-02-17T23:54:01.273Z,4.35
2024-02-17T23:59:05.215Z,4.26
